Time;durP1;ratioP1;P1;durP2;ratioP2;P2;SDS_P1;SDS_P2;PMS_P1;PMS_P2;Temp;Humidity;BMP_temperature;BMP_pressure;BME280_temperature;BME280_humidity;BME280_pressure;Samples;Min_cycle;Max_cycle;Signal;HPM_P1;HPM_P2
2021/12/07 00:00:44;;;;;;;20.10;10.20;;;;;;;5.05;100.00;99121.06;5051805;28;20288;-80
2021/12/07 00:03:11;;;;;;;19.63;10.27;;;;;;;5.06;100.00;99126.25;5051315;28;20187;-79
2021/12/07 00:05:38;;;;;;;17.83;8.60;;;;;;;5.00;100.00;99126.09;5051669;28;20667;-80
2021/12/07 00:08:05;;;;;;;17.67;8.17;;;;;;;4.77;100.00;99128.16;5051755;28;20599;-81
2021/12/07 00:10:32;;;;;;;15.37;8.70;;;;;;;4.21;100.00;99055.00;5050969;28;20202;-81
2021/12/07 00:12:59;;;;;;;13.43;7.77;;;;;;;4.71;100.00;99104.06;5071890;28;20248;-80
2021/12/07 00:15:30;;;;;;;17.10;7.03;;;;;;;4.54;100.00;99093.41;5071398;28;20210;-79
2021/12/07 00:17:57;;;;;;;12.90;7.27;;;;;;;4.63;100.00;99123.56;5072978;28;20199;-78
2021/12/07 00:20:25;;;;;;;9.90;5.60;;;;;;;4.60;100.00;99126.06;5074820;28;20218;-80
2021/12/07 00:22:55;;;;;;;9.13;7.37;;;;;;;4.04;100.00;99030.66;5075186;28;20206;-80
2021/12/07 00:25:23;;;;;;;11.77;6.97;;;;;;;4.42;100.00;99093.97;5074459;28;20218;-79
2021/12/07 00:27:50;;;;;;;10.40;6.63;;;;;;;4.59;100.00;99104.66;5075405;28;20227;-81
2021/12/07 00:30:17;;;;;;;11.63;7.27;;;;;;;4.77;100.00;99107.63;5074090;28;20187;-79
2021/12/07 00:32:50;;;;;;;12.30;6.63;;;;;;;4.67;100.00;99094.56;5074998;28;20206;-81
2021/12/07 00:35:33;;;;;;;13.13;7.90;;;;;;;4.74;100.00;99096.44;5075228;28;20194;-81
2021/12/07 00:38:04;;;;;;;12.07;7.67;;;;;;;4.44;100.00;99055.53;5072260;28;20252;-80
2021/12/07 00:40:32;;;;;;;12.30;7.90;;;;;;;4.66;100.00;99111.66;5054663;28;20214;-79
2021/12/07 00:42:59;;;;;;;10.17;7.13;;;;;;;4.73;100.00;99099.81;5055902;28;20648;-80
2021/12/07 00:45:29;;;;;;;9.17;6.80;;;;;;;4.67;100.00;99094.56;5055098;28;20229;-80
2021/12/07 00:47:57;;;;;;;9.80;7.83;;;;;;;4.58;100.00;99089.19;5055060;28;20302;-80
2021/12/07 00:50:25;;;;;;;14.27;8.07;;;;;;;4.58;100.00;99087.50;5059410;28;20187;-81
2021/12/07 00:52:52;;;;;;;11.63;7.67;;;;;;;4.73;100.00;99090.41;5074839;28;20287;-79
2021/12/07 00:55:24;;;;;;;10.70;6.83;;;;;;;4.79;100.00;99079.41;5074991;28;20194;-80
2021/12/07 00:57:53;;;;;;;14.40;8.43;;;;;;;4.88;100.00;99092.47;5074613;28;20195;-80
2021/12/07 01:00:22;;;;;;;13.37;8.27;;;;;;;4.90;100.00;99085.63;5074860;28;20191;-80
2021/12/07 01:02:49;;;;;;;17.10;8.37;;;;;;;4.88;100.00;99077.06;5075061;28;20199;-79
2021/12/07 01:05:21;;;;;;;16.73;7.97;;;;;;;4.80;100.00;99078.56;5074345;28;20723;-81
2021/12/07 01:08:14;;;;;;;11.73;7.40;;;;;;;4.76;100.00;99069.06;5074810;28;20231;-81
2021/12/07 01:27:07;;;;;;;10.87;7.60;;;;;;;4.84;100.00;99050.44;5068126;28;20708;-80
2021/12/07 01:29:35;;;;;;;11.33;7.30;;;;;;;4.67;100.00;99063.75;5053428;28;20196;-80
2021/12/07 01:32:11;;;;;;;14.40;7.87;;;;;;;4.31;100.00;98997.97;5054291;28;20200;-80
2021/12/07 01:35:07;;;;;;;12.97;7.47;;;;;;;4.71;100.00;99063.00;5072179;28;20280;-81
2021/12/07 01:37:49;;;;;;;13.17;7.50;;;;;;;4.79;100.00;99048.59;5072898;28;20205;-79
2021/12/07 01:40:35;;;;;;;14.90;6.97;;;;;;;4.81;100.00;99046.94;5072590;28;20590;-81
2021/12/07 01:46:32;;;;;;;13.67;8.07;;;;;;;4.40;100.00;99017.81;5051567;28;20238;-79
2021/12/07 01:52:05;;;;;;;10.00;7.27;;;;;;;4.73;100.00;99025.38;5065682;28;20208;-79
2021/12/07 02:00:06;;;;;;;18.23;9.93;;;;;;;4.90;100.00;99026.56;5072768;28;20193;-77
2021/12/07 02:02:33;;;;;;;19.37;9.30;;;;;;;4.79;100.00;99008.38;5073135;28;20195;-79
2021/12/07 02:05:00;;;;;;;17.73;9.10;;;;;;;4.83;100.00;99015.31;5073189;28;20221;-79
2021/12/07 02:07:27;;;;;;;11.53;6.80;;;;;;;4.59;100.00;98976.31;5073067;28;20210;-80
2021/12/07 02:09:59;;;;;;;17.60;8.33;;;;;;;4.84;100.00;98998.22;5072826;28;20243;-81
2021/12/07 02:12:28;;;;;;;11.17;7.00;;;;;;;4.88;100.00;99007.72;5073078;28;20205;-79
2021/12/07 02:14:55;;;;;;;13.73;8.37;;;;;;;4.52;100.00;98950.50;5072689;28;20194;-81
2021/12/07 02:17:25;;;;;;;14.70;9.23;;;;;;;4.68;100.00;98963.66;5072889;28;20190;-79
2021/12/07 02:19:52;;;;;;;14.33;8.23;;;;;;;5.05;100.00;98998.63;5072708;28;20210;-79
2021/12/07 02:22:20;;;;;;;14.83;9.30;;;;;;;5.17;100.00;99001.44;5071963;28;20198;-79
2021/12/07 02:24:48;;;;;;;11.47;7.20;;;;;;;5.27;100.00;99003.34;5073012;28;20191;-79
2021/12/07 02:27:15;;;;;;;11.67;7.77;;;;;;;5.25;100.00;99005.00;5072871;28;20191;-79
2021/12/07 02:29:42;;;;;;;10.10;7.43;;;;;;;5.27;100.00;98998.22;5072479;28;20191;-79
2021/12/07 02:32:09;;;;;;;14.03;8.57;;;;;;;5.29;100.00;99011.06;5072102;28;20199;-80
2021/12/07 02:34:42;;;;;;;12.87;7.70;;;;;;;5.15;100.00;98984.25;5072673;28;20666;-81
2021/12/07 02:37:09;;;;;;;12.17;8.23;;;;;;;5.25;100.00;98996.41;5072647;28;20589;-81
2021/12/07 02:39:40;;;;;;;12.03;8.40;;;;;;;5.10;100.00;98994.44;5072693;28;20195;-80
2021/12/07 02:42:07;;;;;;;10.47;7.07;;;;;;;4.94;100.00;98992.41;5072413;28;20191;-79
2021/12/07 02:44:35;;;;;;;13.80;8.07;;;;;;;5.18;100.00;98990.31;5072337;28;20198;-79
2021/12/07 02:47:02;;;;;;;15.77;7.90;;;;;;;5.21;100.00;99003.22;5072756;28;20229;-81
2021/12/07 02:49:30;;;;;;;13.00;8.30;;;;;;;5.25;100.00;99009.28;5072539;28;20191;-79
2021/12/07 02:51:56;;;;;;;15.63;8.60;;;;;;;5.27;100.00;99011.06;5072463;28;20198;-78
2021/12/07 02:54:23;;;;;;;12.40;7.93;;;;;;;5.17;100.00;99004.03;5072087;28;20191;-81
2021/12/07 02:56:52;;;;;;;11.70;7.67;;;;;;;4.78;100.00;98923.66;5072291;28;20292;-80
2021/12/07 02:59:21;;;;;;;12.00;7.87;;;;;;;5.19;100.00;98989.47;5072123;28;20199;-81
2021/12/07 03:01:56;;;;;;;10.47;7.13;;;;;;;5.30;100.00;99008.53;5072370;28;20579;-80
2021/12/07 03:04:27;;;;;;;16.97;7.87;;;;;;;5.24;100.00;99007.56;5057100;28;20286;-80
2021/12/07 03:07:04;;;;;;;10.03;7.50;;;;;;;5.11;100.00;99003.88;5052491;28;20231;-79
2021/12/07 03:26:05;;;;;;;15.77;9.83;;;;;;;5.01;100.00;98945.47;5072323;28;20287;-80
2021/12/07 03:28:36;;;;;;;15.70;10.13;;;;;;;5.25;100.00;98960.44;5072156;28;20288;-79
2021/12/07 03:31:04;;;;;;;13.83;8.70;;;;;;;5.17;100.00;98964.59;5072419;28;20199;-81
2021/12/07 03:33:30;;;;;;;14.27;8.57;;;;;;;5.25;100.00;98970.72;5071768;28;20195;-79
2021/12/07 03:35:57;;;;;;;15.63;9.53;;;;;;;5.12;100.00;98936.25;5072053;28;20206;-79
2021/12/07 03:38:25;;;;;;;18.47;9.27;;;;;;;5.38;100.00;98959.84;5072120;28;20198;-80
2021/12/07 03:40:52;;;;;;;20.47;9.63;;;;;;;5.45;100.00;98961.69;5071266;28;20618;-79
2021/12/07 03:43:19;;;;;;;15.03;9.33;;;;;;;5.50;100.00;98958.34;5072026;28;20209;-79
2021/12/07 03:45:48;;;;;;;13.47;8.60;;;;;;;5.55;100.00;98960.13;5071728;28;20249;-81
2021/12/07 03:48:15;;;;;;;13.17;7.90;;;;;;;5.55;100.00;98972.97;5071822;28;20198;-80
2021/12/07 03:50:43;;;;;;;14.83;10.07;;;;;;;5.36;100.00;98951.22;5071920;28;20200;-81
2021/12/07 03:53:10;;;;;;;11.43;8.73;;;;;;;5.43;100.00;98968.50;5055042;28;20191;-81
2021/12/07 03:55:38;;;;;;;12.67;8.57;;;;;;;5.48;100.00;98962.59;5051648;28;20240;-79
2021/12/07 03:58:05;;;;;;;13.53;8.27;;;;;;;5.55;100.00;98972.97;5056679;28;20213;-80
2021/12/07 04:00:35;;;;;;;12.57;7.97;;;;;;;5.52;100.00;98978.94;5070540;28;20206;-80
2021/12/07 04:03:07;;;;;;;17.40;9.23;;;;;;;5.40;100.00;98984.72;5070955;28;20191;-78
2021/12/07 04:05:36;;;;;;;24.00;10.20;;;;;;;5.21;100.00;98984.38;5071183;28;20215;-79
2021/12/07 04:08:03;;;;;;;147.93;39.93;;;;;;;5.25;100.00;98981.88;5071231;28;20294;-79
2021/12/07 04:10:30;;;;;;;69.60;23.80;;;;;;;5.18;100.00;98972.31;5070381;28;20187;-81
2021/12/07 04:12:57;;;;;;;31.47;13.67;;;;;;;5.23;100.00;98969.84;5071281;28;20241;-78
2021/12/07 04:15:24;;;;;;;42.00;22.57;;;;;;;5.28;100.00;98978.53;5071760;28;20641;-81
2021/12/07 04:17:51;;;;;;;29.57;17.57;;;;;;;5.19;100.00;98973.19;5071870;28;20191;-79
2021/12/07 04:20:20;;;;;;;21.37;11.67;;;;;;;5.03;100.00;98997.72;5071532;28;20222;-82
2021/12/07 04:22:47;;;;;;;17.60;11.17;;;;;;;5.09;100.00;98997.84;5071482;28;20199;-80
2021/12/07 04:25:15;;;;;;;56.40;30.53;;;;;;;5.09;100.00;98982.44;5071362;28;20688;-80
2021/12/07 04:27:43;;;;;;;54.93;25.93;;;;;;;4.96;100.00;98959.91;5065366;28;20219;-79
2021/12/07 04:30:13;;;;;;;57.90;22.97;;;;;;;5.18;100.00;98967.19;5051476;28;20567;-81
2021/12/07 04:32:40;;;;;;;66.93;30.73;;;;;;;5.02;100.00;98972.91;5051045;28;20195;-81
2021/12/07 04:35:08;;;;;;;44.60;24.20;;;;;;;5.09;100.00;98969.59;5051478;28;20195;-80
2021/12/07 04:37:36;;;;;;;37.40;18.47;;;;;;;5.18;100.00;98971.47;5051051;28;20188;-80
2021/12/07 04:40:04;;;;;;;34.23;17.43;;;;;;;5.19;100.00;98952.66;5050580;28;20744;-80
2021/12/07 04:42:31;;;;;;;38.90;19.77;;;;;;;5.18;100.00;98954.34;5051591;28;20214;-80
2021/12/07 04:45:02;;;;;;;69.10;35.33;;;;;;;5.20;100.00;98946.69;5051583;28;20192;-79
2021/12/07 04:47:37;;;;;;;109.80;50.17;;;;;;;5.32;100.00;98952.00;5052006;28;20231;-80
2021/12/07 04:58:19;;;;;;;45.10;23.47;;;;;;;5.23;100.00;98969.84;5051142;28;20218;-79
2021/12/07 05:00:46;;;;;;;40.60;20.13;;;;;;;5.29;100.00;98982.78;5051267;28;20195;-80
2021/12/07 05:03:15;;;;;;;38.23;17.47;;;;;;;5.32;100.00;98976.00;5050923;28;20238;-81
2021/12/07 05:05:46;;;;;;;62.43;34.40;;;;;;;5.33;100.00;98975.19;5070472;28;20211;-81
2021/12/07 05:08:18;;;;;;;55.50;32.17;;;;;;;5.42;100.00;98972.75;5074844;28;20202;-79
2021/12/07 05:11:12;;;;;;;57.33;28.60;;;;;;;5.46;100.00;98969.41;5073333;28;20191;-80
2021/12/07 05:13:50;;;;;;;45.20;25.97;;;;;;;5.51;100.00;98979.78;5074190;28;20274;-78
2021/12/07 05:16:45;;;;;;;31.07;16.93;;;;;;;5.55;100.00;98994.41;5073731;28;20202;-78
2021/12/07 05:23:54;;;;;;;22.60;12.47;;;;;;;5.49;100.00;98984.88;5073741;28;20292;-79
2021/12/07 05:25:27;;;;;;;28.10;15.80;;;;;;;5.23;100.00;98946.72;5049742;28;20210;-77
2021/12/07 05:38:53;;;;;;;37.07;19.43;;;;;;;5.18;100.00;98941.50;5032761;28;20199;-81
2021/12/07 05:41:21;;;;;;;62.63;34.23;;;;;;;5.20;100.00;98951.81;5031902;28;20295;-80
2021/12/07 05:43:48;;;;;;;48.43;24.03;;;;;;;5.19;100.00;98935.53;5031892;28;20192;-77
2021/12/07 05:46:15;;;;;;;50.30;28.60;;;;;;;5.29;100.00;98947.69;5044429;28;20289;-80
2021/12/07 05:48:42;;;;;;;66.43;38.43;;;;;;;5.23;100.00;98947.59;5060484;28;20582;-79
2021/12/07 05:51:08;;;;;;;92.67;58.07;;;;;;;5.10;100.00;98942.22;5073874;28;20198;-80
2021/12/07 05:53:35;;;;;;;45.53;28.83;;;;;;;4.99;100.00;98924.03;5073768;28;20198;-80
2021/12/07 05:56:03;;;;;;;42.73;22.33;;;;;;;5.20;100.00;98927.00;5073943;28;20206;-78
2021/12/07 05:58:32;;;;;;;42.50;22.57;;;;;;;5.25;100.00;98951.03;5073964;28;20198;-78
2021/12/07 06:00:58;;;;;;;41.60;19.90;;;;;;;5.37;100.00;98952.97;5073621;28;20202;-79
2021/12/07 06:03:26;;;;;;;36.43;18.13;;;;;;;5.46;100.00;98966.84;5073215;28;20216;-78
2021/12/07 06:05:54;;;;;;;34.77;17.83;;;;;;;5.38;100.00;98947.88;5073326;28;20578;-78
2021/12/07 06:08:23;;;;;;;29.33;16.93;;;;;;;5.29;100.00;98946.81;5073537;28;20206;-78
2021/12/07 06:10:50;;;;;;;45.83;24.37;;;;;;;5.32;100.00;98958.03;5072815;28;20703;-78
2021/12/07 06:13:17;;;;;;;41.93;22.70;;;;;;;5.40;100.00;98959.03;5073421;28;20195;-78
2021/12/07 06:15:45;;;;;;;35.63;19.23;;;;;;;5.48;100.00;98954.91;5072674;28;20608;-78
2021/12/07 06:18:13;;;;;;;19.53;11.03;;;;;;;5.66;100.00;98956.03;5073269;28;20207;-78
2021/12/07 06:20:41;;;;;;;30.83;15.80;;;;;;;5.64;100.00;98955.13;5073454;28;20210;-75
2021/12/07 06:23:09;;;;;;;29.67;14.77;;;;;;;5.57;100.00;98956.72;5073096;28;20294;-77
2021/12/07 06:25:36;;;;;;;28.07;14.80;;;;;;;5.48;100.00;98954.03;5073035;28;20190;-78
2021/12/07 06:28:03;;;;;;;24.30;13.10;;;;;;;5.04;100.00;98881.31;5072704;28;20724;-78
2021/12/07 06:30:29;;;;;;;24.27;12.63;;;;;;;5.71;100.00;98936.38;5072878;28;20692;-78
2021/12/07 06:32:58;;;;;;;53.43;28.23;;;;;;;5.53;100.00;98933.53;5071991;28;20205;-78
2021/12/07 06:35:25;;;;;;;39.90;21.30;;;;;;;5.40;100.00;98946.19;5072832;28;20191;-78
2021/12/07 06:37:52;;;;;;;25.47;14.47;;;;;;;5.42;100.00;98952.19;5072458;28;20665;-78
2021/12/07 06:40:19;;;;;;;37.80;20.83;;;;;;;5.43;100.00;98959.06;5071596;28;20191;-78
2021/12/07 06:42:46;;;;;;;21.60;13.03;;;;;;;5.01;100.00;98865.84;5072816;28;20567;-78
2021/12/07 06:45:13;;;;;;;34.43;19.30;;;;;;;5.42;100.00;98941.91;5071689;28;20199;-78
2021/12/07 06:47:40;;;;;;;41.77;22.13;;;;;;;5.45;100.00;98936.84;5072813;28;20234;-78
2021/12/07 06:50:11;;;;;;;40.23;22.97;;;;;;;5.54;100.00;98935.25;5065223;28;20223;-78
2021/12/07 06:52:39;;;;;;;28.93;15.77;;;;;;;5.49;100.00;98909.50;5052456;28;20709;-77
2021/12/07 06:55:07;;;;;;;24.63;12.63;;;;;;;5.66;100.00;98925.19;5052728;28;20588;-78
2021/12/07 06:57:35;;;;;;;22.80;14.77;;;;;;;5.62;100.00;98913.13;5052720;28;20195;-79
2021/12/07 07:00:02;;;;;;;22.27;12.33;;;;;;;5.06;100.00;98814.56;5052598;28;20598;-78
2021/12/07 07:02:29;;;;;;;39.87;21.70;;;;;;;5.48;100.00;98906.06;5061478;28;20574;-79
2021/12/07 07:04:56;;;;;;;44.27;23.43;;;;;;;5.41;100.00;98898.22;5072519;28;20197;-79
2021/12/07 07:07:24;;;;;;;25.67;14.10;;;;;;;5.60;100.00;98910.50;5072282;28;20237;-80
2021/12/07 07:09:52;;;;;;;63.33;32.13;;;;;;;5.61;100.00;98919.94;5072162;28;20194;-79
2021/12/07 07:12:19;;;;;;;38.70;20.93;;;;;;;5.74;100.00;98941.59;5071611;28;20730;-77
2021/12/07 07:14:46;;;;;;;61.33;31.37;;;;;;;5.60;100.00;98950.81;5072289;28;20198;-78
2021/12/07 07:17:13;;;;;;;36.07;19.43;;;;;;;5.56;100.00;98941.31;5071999;28;20199;-78
2021/12/07 07:19:40;;;;;;;39.03;19.67;;;;;;;5.49;100.00;98938.59;5072001;28;20222;-77
2021/12/07 07:22:07;;;;;;;41.73;22.17;;;;;;;5.48;100.00;98910.31;5071986;28;20252;-78
2021/12/07 07:24:35;;;;;;;31.63;18.17;;;;;;;5.89;100.00;98954.69;5071872;28;20199;-77
2021/12/07 07:27:03;;;;;;;28.00;15.40;;;;;;;5.76;100.00;98953.63;5071684;28;20225;-79
2021/12/07 07:29:30;;;;;;;25.17;15.93;;;;;;;5.55;100.00;98906.16;5071301;28;20230;-76
2021/12/07 07:31:58;;;;;;;24.70;15.30;;;;;;;5.75;100.00;98969.03;5072082;28;20195;-76
2021/12/07 07:34:25;;;;;;;31.90;14.27;;;;;;;5.79;100.00;98965.66;5072261;28;20206;-77
2021/12/07 07:36:52;;;;;;;17.50;10.87;;;;;;;5.77;100.00;98954.50;5072109;28;20205;-77
2021/12/07 07:39:20;;;;;;;17.10;9.53;;;;;;;5.73;100.00;98930.44;5068511;28;20206;-80
2021/12/07 07:41:48;;;;;;;14.07;8.57;;;;;;;5.65;100.00;98918.28;5071234;28;20191;-78
2021/12/07 07:44:15;;;;;;;14.87;8.03;;;;;;;5.40;100.00;98887.06;5071152;28;20190;-79
2021/12/07 07:46:42;;;;;;;9.23;6.97;;;;;;;5.53;100.00;98805.03;5071487;28;20223;-79
2021/12/07 07:49:09;;;;;;;15.33;7.30;;;;;;;5.38;100.00;98761.97;5071504;28;20198;-76
2021/12/07 07:51:36;;;;;;;37.50;18.67;;;;;;;5.53;100.00;98857.28;5070802;28;20198;-80
2021/12/07 07:54:04;;;;;;;19.57;11.97;;;;;;;5.49;100.00;98907.75;5071044;28;20202;-80
2021/12/07 07:56:31;;;;;;;26.70;15.73;;;;;;;5.49;100.00;98909.50;5070513;28;20201;-80
2021/12/07 07:59:00;;;;;;;33.07;17.47;;;;;;;5.60;100.00;98917.38;5071360;28;20684;-76
2021/12/07 08:01:30;;;;;;;49.53;21.17;;;;;;;5.58;100.00;98917.34;5071779;28;20590;-82
2021/12/07 08:03:57;;;;;;;75.43;36.40;;;;;;;5.49;100.00;98912.91;5066258;28;20207;-81
2021/12/07 08:06:24;;;;;;;40.63;21.47;;;;;;;5.62;100.00;98913.13;5064527;28;20198;-81
2021/12/07 08:08:51;;;;;;;90.20;37.67;;;;;;;5.48;100.00;98885.50;5070590;28;20209;-82
2021/12/07 08:11:18;;;;;;;37.43;19.37;;;;;;;5.59;100.00;98916.50;5070017;28;20187;-81
2021/12/07 08:13:44;;;;;;;31.33;17.93;;;;;;;5.40;100.00;98863.06;5068087;28;20195;-81
2021/12/07 08:16:16;;;;;;;69.00;32.97;;;;;;;5.81;100.00;98905.72;5070991;28;20202;-81
2021/12/07 08:18:44;;;;;;;17.63;10.13;;;;;;;5.62;100.00;98895.13;5072924;28;20290;-82
2021/12/07 08:21:11;;;;;;;25.00;14.27;;;;;;;5.65;100.00;98903.75;5073824;28;20214;-81
2021/12/07 08:23:38;;;;;;;32.70;18.17;;;;;;;5.19;100.00;98819.06;5070680;28;20198;-81
2021/12/07 08:26:06;;;;;;;33.47;17.07;;;;;;;5.67;100.00;98911.50;5071168;28;20187;-81
2021/12/07 08:28:33;;;;;;;29.17;17.40;;;;;;;5.65;100.00;98914.03;5071076;28;20623;-80
2021/12/07 08:31:00;;;;;;;27.83;18.33;;;;;;;5.73;100.00;98917.59;5069933;28;20191;-78
2021/12/07 08:33:28;;;;;;;13.23;7.53;;;;;;;5.57;100.00;98912.16;5070742;28;20199;-79
2021/12/07 08:35:55;;;;;;;11.43;8.17;;;;;;;5.53;100.00;98911.25;5071273;28;20203;-80
2021/12/07 08:38:23;;;;;;;20.80;12.13;;;;;;;5.69;100.00;98902.09;5070730;28;20198;-81
2021/12/07 08:40:53;;;;;;;27.00;11.53;;;;;;;5.78;100.00;98902.22;5072885;28;20202;-80
2021/12/07 08:43:21;;;;;;;20.30;11.27;;;;;;;5.91;100.00;98899.03;5071033;28;20201;-80
2021/12/07 08:45:49;;;;;;;21.77;10.53;;;;;;;5.79;100.00;98896.22;5073113;28;20210;-79
2021/12/07 08:48:17;;;;;;;18.23;10.23;;;;;;;5.75;100.00;98894.44;5074074;28;20250;-79
2021/12/07 08:50:46;;;;;;;21.73;12.53;;;;;;;6.06;100.00;98896.66;5074986;28;20191;-79
2021/12/07 08:53:16;;;;;;;24.97;12.63;;;;;;;6.15;100.00;98896.78;5074746;28;20191;-80
2021/12/07 09:01:14;;;;;;;24.70;14.37;;;;;;;5.86;100.00;98923.81;5054532;28;20324;-78
2021/12/07 09:03:41;;;;;;;15.07;9.63;;;;;;;5.77;100.00;98928.78;5054274;28;20191;-79
2021/12/07 09:06:10;;;;;;;17.93;9.10;;;;;;;5.68;100.00;98920.91;5066281;28;20191;-80
2021/12/07 09:08:37;;;;;;;20.30;10.07;;;;;;;5.61;100.00;98913.94;5073608;28;20281;-81
2021/12/07 09:11:04;;;;;;;17.27;9.37;;;;;;;5.62;100.00;98920.81;5070695;28;20616;-80
2021/12/07 09:13:31;;;;;;;20.67;10.90;;;;;;;5.55;100.00;98911.28;5073348;28;20719;-80
2021/12/07 09:15:59;;;;;;;14.63;10.27;;;;;;;5.50;100.00;98890.63;5073892;28;20198;-79
2021/12/07 09:18:26;;;;;;;15.30;10.60;;;;;;;5.48;100.00;98870.06;5073408;28;20755;-80
2021/12/07 09:20:54;;;;;;;20.83;12.13;;;;;;;5.79;100.00;98880.78;5074278;28;20217;-80
2021/12/07 09:23:23;;;;;;;24.57;12.40;;;;;;;6.08;100.00;98873.53;5073726;28;20199;-80
2021/12/07 09:25:50;;;;;;;21.87;10.53;;;;;;;6.12;100.00;98868.44;5072976;28;20608;-76
2021/12/07 09:28:17;;;;;;;19.97;9.73;;;;;;;6.03;100.00;98865.72;5073170;28;20230;-77
2021/12/07 09:30:50;;;;;;;24.47;12.30;;;;;;;6.09;100.00;98875.25;5073984;28;20191;-76
2021/12/07 09:33:18;;;;;;;27.30;13.80;;;;;;;6.30;100.00;98884.13;5074038;28;20554;-73
2021/12/07 09:35:45;;;;;;;33.97;15.43;;;;;;;6.08;100.00;98874.38;5073079;28;20635;-73
2021/12/07 09:38:12;;;;;;;33.23;14.40;;;;;;;6.27;100.00;98868.66;5073352;28;20702;-74
2021/12/07 09:40:42;;;;;;;53.57;21.40;;;;;;;6.44;100.00;98854.25;5072402;28;20226;-74
2021/12/07 09:43:10;;;;;;;65.57;26.23;;;;;;;6.39;100.00;98855.91;5073476;28;20277;-73
2021/12/07 09:45:37;;;;;;;56.70;21.77;;;;;;;6.25;100.00;98867.75;5072838;28;20229;-72
2021/12/07 09:48:05;;;;;;;32.30;16.77;;;;;;;6.12;100.00;98867.56;5072995;28;20582;-76
2021/12/07 09:50:34;;;;;;;79.70;40.87;;;;;;;6.20;100.00;98864.25;5073136;28;20202;-73
2021/12/07 09:53:01;;;;;;;31.27;17.83;;;;;;;6.16;100.00;98883.09;5072992;28;20199;-76
2021/12/07 09:55:29;;;;;;;36.30;21.63;;;;;;;6.10;100.00;98872.69;5072911;28;20195;-78
2021/12/07 09:57:57;;;;;;;17.40;11.40;;;;;;;5.85;100.00;98870.63;5071655;28;20278;-78
2021/12/07 10:00:25;;;;;;;22.53;11.63;;;;;;;5.87;100.00;98846.69;5072873;28;20660;-78
2021/12/07 10:02:52;;;;;;;26.40;13.43;;;;;;;6.01;100.00;98869.13;5071687;28;20187;-75
2021/12/07 10:05:20;;;;;;;16.07;10.10;;;;;;;5.80;100.00;98872.25;5071815;28;20753;-76
2021/12/07 10:07:48;;;;;;;16.23;9.03;;;;;;;5.77;100.00;98861.94;5071954;28;20552;-76
2021/12/07 10:10:21;;;;;;;12.17;8.40;;;;;;;5.67;100.00;98860.06;5071970;28;20669;-75
2021/12/07 10:12:48;;;;;;;9.20;6.50;;;;;;;5.78;100.00;98863.66;5076942;28;20210;-76
2021/12/07 10:15:18;;;;;;;38.50;19.60;;;;;;;5.81;100.00;98864.56;5072166;28;20191;-76
2021/12/07 10:18:00;;;;;;;21.77;12.33;;;;;;;6.04;100.00;98862.31;5072486;28;20198;-77
2021/12/07 10:20:33;;;;;;;12.47;7.33;;;;;;;5.96;100.00;98859.66;5072168;28;20610;-77
2021/12/07 10:23:05;;;;;;;11.57;8.57;;;;;;;6.00;100.00;98855.41;5072799;28;20191;-76
2021/12/07 10:25:32;;;;;;;18.90;11.00;;;;;;;6.03;100.00;98850.28;5072503;28;20205;-78
2021/12/07 10:27:59;;;;;;;81.50;34.27;;;;;;;6.17;100.00;98837.63;5072734;28;20239;-73
2021/12/07 10:30:28;;;;;;;120.17;50.20;;;;;;;6.43;100.00;98857.66;5073207;28;20206;-74
2021/12/07 10:33:00;;;;;;;10.17;7.27;;;;;;;6.27;100.00;98860.06;5060324;28;20187;-75
2021/12/07 10:35:29;;;;;;;18.93;10.53;;;;;;;6.23;100.00;98866.88;5071862;28;20203;-78
2021/12/07 10:38:13;;;;;;;14.17;8.27;;;;;;;6.03;100.00;98850.28;5072721;28;20202;-76
2021/12/07 10:40:55;;;;;;;29.43;17.13;;;;;;;5.97;100.00;98845.94;5071266;28;20409;-76
2021/12/07 10:43:44;;;;;;;14.63;9.03;;;;;;;6.05;100.00;98835.75;5072076;28;20186;-76
2021/12/07 10:46:36;;;;;;;29.30;16.07;;;;;;;5.99;100.00;98827.97;5071897;28;20194;-76
2021/12/07 10:49:20;;;;;;;25.10;14.47;;;;;;;6.05;100.00;98811.75;5059945;28;20211;-75
2021/12/07 10:52:29;;;;;;;16.37;8.87;;;;;;;5.98;100.00;98837.41;5070990;28;20252;-77
2021/12/07 10:55:07;;;;;;;16.13;10.07;;;;;;;6.17;100.00;98837.63;5063593;28;20195;-76
2021/12/07 10:57:38;;;;;;;14.63;8.87;;;;;;;6.56;100.00;98832.94;5059200;28;20194;-76
2021/12/07 11:00:20;;;;;;;17.23;11.93;;;;;;;6.55;100.00;98840.63;5071604;28;20199;-77
2021/12/07 11:02:51;;;;;;;10.83;6.93;;;;;;;6.37;100.00;98834.44;5071852;28;20195;-77
2021/12/07 11:05:22;;;;;;;14.57;8.27;;;;;;;6.13;100.00;98829.00;5071741;28;20199;-77
2021/12/07 11:07:50;;;;;;;20.13;13.30;;;;;;;6.12;100.00;98813.53;5071671;28;20682;-79
2021/12/07 11:10:22;;;;;;;15.03;9.27;;;;;;;6.23;100.00;98806.81;5071079;28;20206;-75
2021/12/07 11:12:59;;;;;;;16.03;10.10;;;;;;;6.26;100.00;98828.31;5071717;28;20198;-76
2021/12/07 11:15:28;;;;;;;36.73;20.10;;;;;;;6.05;100.00;98828.03;5070956;28;20195;-77
2021/12/07 11:17:59;;;;;;;40.70;19.80;;;;;;;5.71;100.00;98789.81;5071564;28;20282;-77
2021/12/07 11:20:28;;;;;;;20.97;12.77;;;;;;;6.02;100.00;98822.00;5071643;28;20215;-77
2021/12/07 11:22:57;;;;;;;43.17;22.70;;;;;;;6.08;100.00;98816.91;5071890;28;20198;-77
2021/12/07 11:31:18;;;;;;;36.87;21.30;;;;;;;5.80;100.00;98810.53;5071990;28;20209;-77
2021/12/07 11:33:49;;;;;;;15.07;10.17;;;;;;;5.76;100.00;98813.91;5071168;28;20198;-78
2021/12/07 11:36:18;;;;;;;27.40;15.40;;;;;;;5.79;100.00;98819.09;5071732;28;20283;-76
2021/12/07 11:38:46;;;;;;;27.17;17.10;;;;;;;5.80;100.00;98813.09;5071851;28;20195;-76
2021/12/07 11:41:19;;;;;;;17.60;13.03;;;;;;;5.80;100.00;98815.69;5070694;28;20696;-77
2021/12/07 11:43:56;;;;;;;23.23;15.33;;;;;;;5.65;100.00;98815.47;5071205;28;20191;-78
2021/12/07 11:46:25;;;;;;;22.10;12.70;;;;;;;5.59;100.00;98807.66;5071433;28;20198;-77
2021/12/07 11:49:08;;;;;;;18.13;11.20;;;;;;;5.52;100.00;98804.16;5071768;28;20226;-77
2021/12/07 11:51:35;;;;;;;22.10;10.53;;;;;;;5.57;100.00;98801.63;5071258;28;20576;-77
2021/12/07 11:54:03;;;;;;;14.43;9.77;;;;;;;5.39;100.00;98763.69;5070642;28;20197;-77
2021/12/07 11:56:30;;;;;;;30.50;18.70;;;;;;;5.57;100.00;98783.63;5071794;28;20202;-77
2021/12/07 11:58:57;;;;;;;12.43;8.03;;;;;;;5.46;100.00;98789.50;5070591;28;20669;-77
2021/12/07 12:01:24;;;;;;;19.73;11.83;;;;;;;5.59;100.00;98803.41;5071331;28;20194;-77
2021/12/07 12:03:50;;;;;;;11.23;7.73;;;;;;;5.50;100.00;98795.53;5070997;28;20199;-78
2021/12/07 12:06:19;;;;;;;14.20;10.30;;;;;;;5.43;100.00;98789.44;5070841;28;20536;-76
2021/12/07 12:08:46;;;;;;;12.17;8.70;;;;;;;5.41;100.00;98780.88;5070758;28;20226;-77
2021/12/07 12:11:22;;;;;;;9.53;7.17;;;;;;;5.44;100.00;98791.19;5070404;28;20193;-77
2021/12/07 12:13:57;;;;;;;15.73;9.87;;;;;;;5.64;100.00;98791.44;5070728;28;20201;-77
2021/12/07 12:16:30;;;;;;;10.93;7.53;;;;;;;5.38;100.00;98790.25;5075263;28;20206;-77
2021/12/07 12:19:03;;;;;;;14.03;9.10;;;;;;;5.63;100.00;98791.44;5075157;28;20194;-78
2021/12/07 12:21:35;;;;;;;11.77;8.03;;;;;;;5.60;100.00;98791.41;5075452;28;20649;-77
2021/12/07 12:24:14;;;;;;;24.73;13.33;;;;;;;5.60;100.00;98788.84;5070660;28;20210;-81
2021/12/07 12:26:44;;;;;;;19.70;11.53;;;;;;;5.49;100.00;98789.53;5073408;28;20213;-80
2021/12/07 12:29:23;;;;;;;13.97;8.67;;;;;;;5.19;100.00;98759.97;5073942;28;20599;-81
2021/12/07 12:31:53;;;;;;;18.30;10.03;;;;;;;5.44;100.00;98796.31;5066429;28;20467;-79
2021/12/07 12:34:22;;;;;;;16.77;9.47;;;;;;;5.37;100.00;98797.09;5074839;28;20591;-79
2021/12/07 12:37:01;;;;;;;13.23;8.93;;;;;;;5.45;100.00;98805.78;5075884;28;20202;-79
2021/12/07 12:39:51;;;;;;;17.17;9.00;;;;;;;5.49;100.00;98807.53;5074941;28;20572;-81
2021/12/07 12:42:36;;;;;;;16.03;9.67;;;;;;;5.46;100.00;98799.78;5075687;28;20666;-80
2021/12/07 12:45:13;;;;;;;19.40;9.40;;;;;;;5.59;100.00;98810.25;5074291;28;20595;-80
2021/12/07 12:47:41;;;;;;;27.13;12.77;;;;;;;5.20;100.00;98774.56;5068188;28;20230;-80
2021/12/07 12:50:14;;;;;;;18.37;10.63;;;;;;;5.68;100.00;98820.63;5074412;28;20206;-81
2021/12/07 12:52:46;;;;;;;12.30;8.60;;;;;;;5.65;100.00;98826.59;5075762;28;20194;-81